sensor_id;sensor_type;location;lat;lon;timestamp;P1;durP1;ratioP1;P2;durP2;ratioP2
18568;SDS011;14780;48.316;-1.050;2023-09-07T00:00:15;19.75;;;7.00;;
18568;SDS011;14780;48.316;-1.050;2023-09-07T00:03:00;16.63;;;6.88;;
18568;SDS011;14780;48.316;-1.050;2023-09-07T00:05:44;23.40;;;7.20;;
18568;SDS011;14780;48.316;-1.050;2023-09-07T00:08:29;17.10;;;6.60;;
18568;SDS011;14780;48.316;-1.050;2023-09-07T00:11:16;14.85;;;6.68;;
18568;SDS011;14780;48.316;-1.050;2023-09-07T00:14:01;19.35;;;7.07;;
18568;SDS011;14780;48.316;-1.050;2023-09-07T00:16:46;17.65;;;6.40;;
18568;SDS011;14780;48.316;-1.050;2023-09-07T00:19:31;17.92;;;6.22;;
18568;SDS011;14780;48.316;-1.050;2023-09-07T00:22:17;22.02;;;6.53;;
18568;SDS011;14780;48.316;-1.050;2023-09-07T00:25:02;15.00;;;6.30;;
18568;SDS011;14780;48.316;-1.050;2023-09-07T00:27:48;18.50;;;6.55;;
18568;SDS011;14780;48.316;-1.050;2023-09-07T00:30:32;22.08;;;7.10;;
18568;SDS011;14780;48.316;-1.050;2023-09-07T00:33:17;16.75;;;6.50;;
18568;SDS011;14780;48.316;-1.050;2023-09-07T00:36:02;18.50;;;7.00;;
18568;SDS011;14780;48.316;-1.050;2023-09-07T00:38:47;16.87;;;6.60;;
18568;SDS011;14780;48.316;-1.050;2023-09-07T00:41:32;15.40;;;6.43;;
18568;SDS011;14780;48.316;-1.050;2023-09-07T00:44:16;14.57;;;6.40;;
18568;SDS011;14780;48.316;-1.050;2023-09-07T00:47:01;17.40;;;6.60;;
18568;SDS011;14780;48.316;-1.050;2023-09-07T00:49:46;15.55;;;5.72;;
18568;SDS011;14780;48.316;-1.050;2023-09-07T00:52:32;17.00;;;6.93;;
18568;SDS011;14780;48.316;-1.050;2023-09-07T00:55:18;17.63;;;6.22;;
18568;SDS011;14780;48.316;-1.050;2023-09-07T00:58:04;14.18;;;6.30;;
18568;SDS011;14780;48.316;-1.050;2023-09-07T01:00:49;17.50;;;6.47;;
18568;SDS011;14780;48.316;-1.050;2023-09-07T01:03:34;17.45;;;6.65;;
18568;SDS011;14780;48.316;-1.050;2023-09-07T01:06:40;17.65;;;6.90;;
18568;SDS011;14780;48.316;-1.050;2023-09-07T01:09:28;17.63;;;6.57;;
18568;SDS011;14780;48.316;-1.050;2023-09-07T01:12:15;16.50;;;6.22;;
18568;SDS011;14780;48.316;-1.050;2023-09-07T01:15:00;17.08;;;6.40;;
18568;SDS011;14780;48.316;-1.050;2023-09-07T01:17:48;16.13;;;6.40;;
18568;SDS011;14780;48.316;-1.050;2023-09-07T01:20:34;17.10;;;6.70;;
18568;SDS011;14780;48.316;-1.050;2023-09-07T01:23:19;14.15;;;6.38;;
18568;SDS011;14780;48.316;-1.050;2023-09-07T01:26:06;16.75;;;6.25;;
18568;SDS011;14780;48.316;-1.050;2023-09-07T01:28:52;18.57;;;6.77;;
18568;SDS011;14780;48.316;-1.050;2023-09-07T01:31:37;15.80;;;6.63;;
18568;SDS011;14780;48.316;-1.050;2023-09-07T01:34:22;16.45;;;6.25;;
18568;SDS011;14780;48.316;-1.050;2023-09-07T01:37:07;16.63;;;6.53;;
18568;SDS011;14780;48.316;-1.050;2023-09-07T01:39:52;14.38;;;6.35;;
18568;SDS011;14780;48.316;-1.050;2023-09-07T01:42:37;13.70;;;5.75;;
18568;SDS011;14780;48.316;-1.050;2023-09-07T01:45:21;15.65;;;6.63;;
18568;SDS011;14780;48.316;-1.050;2023-09-07T01:48:11;12.85;;;6.47;;
18568;SDS011;14780;48.316;-1.050;2023-09-07T01:50:57;12.02;;;5.88;;
18568;SDS011;14780;48.316;-1.050;2023-09-07T01:53:41;14.88;;;6.10;;
18568;SDS011;14780;48.316;-1.050;2023-09-07T01:56:26;15.95;;;6.32;;
18568;SDS011;14780;48.316;-1.050;2023-09-07T01:59:11;15.82;;;6.22;;
18568;SDS011;14780;48.316;-1.050;2023-09-07T02:01:56;13.32;;;6.30;;
18568;SDS011;14780;48.316;-1.050;2023-09-07T02:04:40;13.53;;;6.07;;
18568;SDS011;14780;48.316;-1.050;2023-09-07T02:07:29;14.68;;;6.32;;
18568;SDS011;14780;48.316;-1.050;2023-09-07T02:10:14;12.95;;;6.07;;
18568;SDS011;14780;48.316;-1.050;2023-09-07T02:12:58;17.17;;;6.28;;
18568;SDS011;14780;48.316;-1.050;2023-09-07T02:15:43;18.55;;;6.03;;
18568;SDS011;14780;48.316;-1.050;2023-09-07T02:18:27;14.50;;;5.90;;
18568;SDS011;14780;48.316;-1.050;2023-09-07T02:21:12;15.30;;;6.15;;
18568;SDS011;14780;48.316;-1.050;2023-09-07T02:23:58;12.18;;;5.65;;
18568;SDS011;14780;48.316;-1.050;2023-09-07T02:26:43;16.83;;;6.10;;
18568;SDS011;14780;48.316;-1.050;2023-09-07T02:29:29;18.40;;;5.93;;
18568;SDS011;14780;48.316;-1.050;2023-09-07T02:32:13;13.13;;;6.27;;
18568;SDS011;14780;48.316;-1.050;2023-09-07T02:34:58;12.88;;;6.00;;
18568;SDS011;14780;48.316;-1.050;2023-09-07T02:37:42;14.48;;;6.28;;
18568;SDS011;14780;48.316;-1.050;2023-09-07T02:40:27;12.70;;;5.82;;
18568;SDS011;14780;48.316;-1.050;2023-09-07T02:43:12;13.60;;;5.85;;
18568;SDS011;14780;48.316;-1.050;2023-09-07T02:45:56;13.45;;;5.68;;
18568;SDS011;14780;48.316;-1.050;2023-09-07T02:48:41;14.00;;;6.15;;
18568;SDS011;14780;48.316;-1.050;2023-09-07T02:51:25;13.88;;;5.70;;
18568;SDS011;14780;48.316;-1.050;2023-09-07T02:54:10;16.15;;;6.43;;
18568;SDS011;14780;48.316;-1.050;2023-09-07T02:56:55;12.27;;;5.93;;
18568;SDS011;14780;48.316;-1.050;2023-09-07T02:59:39;12.45;;;6.00;;
18568;SDS011;14780;48.316;-1.050;2023-09-07T03:02:24;14.38;;;6.35;;
18568;SDS011;14780;48.316;-1.050;2023-09-07T03:05:09;12.07;;;5.93;;
18568;SDS011;14780;48.316;-1.050;2023-09-07T03:07:54;10.13;;;5.57;;
18568;SDS011;14780;48.316;-1.050;2023-09-07T03:10:38;16.50;;;5.82;;
18568;SDS011;14780;48.316;-1.050;2023-09-07T03:13:24;14.68;;;6.28;;
18568;SDS011;14780;48.316;-1.050;2023-09-07T03:16:09;14.93;;;5.88;;
18568;SDS011;14780;48.316;-1.050;2023-09-07T03:18:53;16.73;;;6.22;;
18568;SDS011;14780;48.316;-1.050;2023-09-07T03:21:38;13.63;;;6.35;;
18568;SDS011;14780;48.316;-1.050;2023-09-07T03:24:23;17.13;;;5.63;;
18568;SDS011;14780;48.316;-1.050;2023-09-07T03:27:08;13.45;;;6.43;;
18568;SDS011;14780;48.316;-1.050;2023-09-07T03:29:54;17.27;;;6.10;;
18568;SDS011;14780;48.316;-1.050;2023-09-07T03:32:39;11.73;;;5.80;;
18568;SDS011;14780;48.316;-1.050;2023-09-07T03:35:23;16.25;;;5.85;;
18568;SDS011;14780;48.316;-1.050;2023-09-07T03:38:08;13.30;;;5.70;;
18568;SDS011;14780;48.316;-1.050;2023-09-07T03:40:53;13.52;;;5.68;;
18568;SDS011;14780;48.316;-1.050;2023-09-07T03:43:38;13.77;;;5.80;;
18568;SDS011;14780;48.316;-1.050;2023-09-07T03:46:23;13.93;;;5.53;;
18568;SDS011;14780;48.316;-1.050;2023-09-07T03:49:08;12.30;;;5.50;;
18568;SDS011;14780;48.316;-1.050;2023-09-07T03:51:52;12.48;;;5.63;;
18568;SDS011;14780;48.316;-1.050;2023-09-07T03:54:37;10.05;;;5.10;;
18568;SDS011;14780;48.316;-1.050;2023-09-07T03:57:22;12.98;;;5.60;;
18568;SDS011;14780;48.316;-1.050;2023-09-07T04:00:07;10.10;;;5.25;;
18568;SDS011;14780;48.316;-1.050;2023-09-07T04:02:52;9.23;;;5.57;;
18568;SDS011;14780;48.316;-1.050;2023-09-07T04:05:37;11.48;;;5.72;;
18568;SDS011;14780;48.316;-1.050;2023-09-07T04:08:25;10.87;;;5.30;;
18568;SDS011;14780;48.316;-1.050;2023-09-07T04:11:10;13.27;;;5.53;;
18568;SDS011;14780;48.316;-1.050;2023-09-07T04:13:55;14.68;;;5.30;;
18568;SDS011;14780;48.316;-1.050;2023-09-07T04:16:39;10.77;;;5.43;;
18568;SDS011;14780;48.316;-1.050;2023-09-07T04:19:24;11.07;;;5.68;;
18568;SDS011;14780;48.316;-1.050;2023-09-07T04:22:10;10.45;;;5.25;;
18568;SDS011;14780;48.316;-1.050;2023-09-07T04:24:55;11.05;;;5.13;;
18568;SDS011;14780;48.316;-1.050;2023-09-07T04:27:40;9.65;;;5.25;;
18568;SDS011;14780;48.316;-1.050;2023-09-07T04:30:24;11.23;;;5.65;;
18568;SDS011;14780;48.316;-1.050;2023-09-07T04:33:09;12.77;;;5.35;;
18568;SDS011;14780;48.316;-1.050;2023-09-07T04:35:54;12.00;;;5.60;;
18568;SDS011;14780;48.316;-1.050;2023-09-07T04:38:39;10.63;;;5.47;;
18568;SDS011;14780;48.316;-1.050;2023-09-07T04:41:25;15.23;;;5.45;;
18568;SDS011;14780;48.316;-1.050;2023-09-07T04:44:09;12.47;;;5.37;;
18568;SDS011;14780;48.316;-1.050;2023-09-07T04:46:55;11.15;;;5.68;;
18568;SDS011;14780;48.316;-1.050;2023-09-07T04:49:39;14.05;;;5.60;;
18568;SDS011;14780;48.316;-1.050;2023-09-07T04:52:25;11.73;;;5.57;;
18568;SDS011;14780;48.316;-1.050;2023-09-07T04:55:10;11.23;;;5.35;;
18568;SDS011;14780;48.316;-1.050;2023-09-07T04:57:55;9.73;;;5.30;;
18568;SDS011;14780;48.316;-1.050;2023-09-07T05:00:40;12.88;;;5.28;;
18568;SDS011;14780;48.316;-1.050;2023-09-07T05:03:24;12.67;;;5.13;;
18568;SDS011;14780;48.316;-1.050;2023-09-07T05:06:09;10.95;;;5.38;;
18568;SDS011;14780;48.316;-1.050;2023-09-07T05:08:55;10.68;;;5.13;;
18568;SDS011;14780;48.316;-1.050;2023-09-07T05:11:39;10.85;;;5.28;;
18568;SDS011;14780;48.316;-1.050;2023-09-07T05:14:25;13.45;;;5.32;;
18568;SDS011;14780;48.316;-1.050;2023-09-07T05:17:09;12.68;;;5.40;;
18568;SDS011;14780;48.316;-1.050;2023-09-07T05:19:54;12.87;;;5.30;;
18568;SDS011;14780;48.316;-1.050;2023-09-07T05:22:39;9.55;;;4.97;;
18568;SDS011;14780;48.316;-1.050;2023-09-07T05:25:25;10.55;;;5.35;;
18568;SDS011;14780;48.316;-1.050;2023-09-07T05:28:09;9.43;;;4.95;;
18568;SDS011;14780;48.316;-1.050;2023-09-07T05:30:55;10.70;;;5.30;;
18568;SDS011;14780;48.316;-1.050;2023-09-07T05:33:40;10.80;;;5.75;;
18568;SDS011;14780;48.316;-1.050;2023-09-07T05:36:25;10.23;;;5.03;;
18568;SDS011;14780;48.316;-1.050;2023-09-07T05:39:10;12.65;;;5.13;;
18568;SDS011;14780;48.316;-1.050;2023-09-07T05:41:55;10.10;;;5.18;;
18568;SDS011;14780;48.316;-1.050;2023-09-07T05:44:40;11.15;;;5.20;;
18568;SDS011;14780;48.316;-1.050;2023-09-07T05:47:24;10.70;;;5.20;;
18568;SDS011;14780;48.316;-1.050;2023-09-07T05:50:09;11.30;;;5.32;;
18568;SDS011;14780;48.316;-1.050;2023-09-07T05:52:54;9.52;;;5.28;;
18568;SDS011;14780;48.316;-1.050;2023-09-07T05:55:38;11.48;;;5.03;;
18568;SDS011;14780;48.316;-1.050;2023-09-07T05:58:23;13.00;;;5.47;;
18568;SDS011;14780;48.316;-1.050;2023-09-07T06:01:08;8.95;;;4.78;;
18568;SDS011;14780;48.316;-1.050;2023-09-07T06:03:53;10.23;;;5.30;;
18568;SDS011;14780;48.316;-1.050;2023-09-07T06:06:38;12.07;;;5.53;;
18568;SDS011;14780;48.316;-1.050;2023-09-07T06:09:22;10.25;;;5.35;;
18568;SDS011;14780;48.316;-1.050;2023-09-07T06:12:07;10.63;;;4.63;;
18568;SDS011;14780;48.316;-1.050;2023-09-07T06:14:52;11.88;;;5.30;;
18568;SDS011;14780;48.316;-1.050;2023-09-07T06:17:37;9.93;;;4.72;;
18568;SDS011;14780;48.316;-1.050;2023-09-07T06:20:21;8.50;;;4.82;;
18568;SDS011;14780;48.316;-1.050;2023-09-07T06:23:06;11.75;;;5.07;;
18568;SDS011;14780;48.316;-1.050;2023-09-07T06:25:51;9.93;;;4.80;;
18568;SDS011;14780;48.316;-1.050;2023-09-07T06:28:35;10.55;;;4.85;;
18568;SDS011;14780;48.316;-1.050;2023-09-07T06:31:20;12.35;;;5.18;;
18568;SDS011;14780;48.316;-1.050;2023-09-07T06:34:04;11.93;;;4.80;;
18568;SDS011;14780;48.316;-1.050;2023-09-07T06:36:50;10.80;;;5.13;;
18568;SDS011;14780;48.316;-1.050;2023-09-07T06:39:34;11.60;;;4.80;;
18568;SDS011;14780;48.316;-1.050;2023-09-07T06:42:19;11.68;;;4.70;;
18568;SDS011;14780;48.316;-1.050;2023-09-07T06:45:04;14.88;;;5.28;;
18568;SDS011;14780;48.316;-1.050;2023-09-07T06:47:50;9.55;;;4.88;;
18568;SDS011;14780;48.316;-1.050;2023-09-07T06:50:34;8.82;;;4.57;;
18568;SDS011;14780;48.316;-1.050;2023-09-07T06:53:19;12.33;;;5.37;;
18568;SDS011;14780;48.316;-1.050;2023-09-07T06:56:04;9.88;;;4.28;;
18568;SDS011;14780;48.316;-1.050;2023-09-07T06:58:50;10.40;;;4.40;;
18568;SDS011;14780;48.316;-1.050;2023-09-07T07:01:36;10.25;;;4.93;;
18568;SDS011;14780;48.316;-1.050;2023-09-07T07:04:20;8.45;;;4.47;;
18568;SDS011;14780;48.316;-1.050;2023-09-07T07:07:05;8.75;;;4.95;;
18568;SDS011;14780;48.316;-1.050;2023-09-07T07:09:50;9.07;;;4.53;;
18568;SDS011;14780;48.316;-1.050;2023-09-07T07:12:36;10.82;;;4.88;;
18568;SDS011;14780;48.316;-1.050;2023-09-07T07:15:22;9.40;;;4.20;;
18568;SDS011;14780;48.316;-1.050;2023-09-07T07:18:06;10.15;;;4.88;;
18568;SDS011;14780;48.316;-1.050;2023-09-07T07:20:54;8.67;;;4.10;;
18568;SDS011;14780;48.316;-1.050;2023-09-07T07:23:39;10.90;;;4.57;;
18568;SDS011;14780;48.316;-1.050;2023-09-07T07:26:24;11.32;;;5.00;;
18568;SDS011;14780;48.316;-1.050;2023-09-07T07:29:09;8.27;;;4.50;;
18568;SDS011;14780;48.316;-1.050;2023-09-07T07:31:53;11.43;;;5.28;;
18568;SDS011;14780;48.316;-1.050;2023-09-07T07:34:38;10.30;;;4.70;;
18568;SDS011;14780;48.316;-1.050;2023-09-07T07:37:22;7.60;;;4.17;;
18568;SDS011;14780;48.316;-1.050;2023-09-07T07:40:08;7.93;;;4.33;;
18568;SDS011;14780;48.316;-1.050;2023-09-07T07:42:53;9.98;;;4.40;;
18568;SDS011;14780;48.316;-1.050;2023-09-07T07:45:38;7.28;;;4.20;;
18568;SDS011;14780;48.316;-1.050;2023-09-07T07:48:22;8.10;;;4.22;;
18568;SDS011;14780;48.316;-1.050;2023-09-07T07:51:07;8.82;;;4.53;;
18568;SDS011;14780;48.316;-1.050;2023-09-07T07:53:53;10.60;;;4.53;;
18568;SDS011;14780;48.316;-1.050;2023-09-07T07:56:40;10.07;;;4.10;;
18568;SDS011;14780;48.316;-1.050;2023-09-07T07:59:24;7.38;;;4.13;;
18568;SDS011;14780;48.316;-1.050;2023-09-07T08:02:09;8.70;;;4.05;;
18568;SDS011;14780;48.316;-1.050;2023-09-07T08:04:53;9.35;;;4.03;;
18568;SDS011;14780;48.316;-1.050;2023-09-07T08:07:38;7.70;;;4.25;;
18568;SDS011;14780;48.316;-1.050;2023-09-07T08:10:23;8.95;;;4.15;;
18568;SDS011;14780;48.316;-1.050;2023-09-07T08:13:08;10.20;;;4.20;;
18568;SDS011;14780;48.316;-1.050;2023-09-07T08:15:52;6.53;;;3.80;;
18568;SDS011;14780;48.316;-1.050;2023-09-07T08:18:37;7.53;;;3.92;;
18568;SDS011;14780;48.316;-1.050;2023-09-07T08:21:23;10.95;;;4.68;;
18568;SDS011;14780;48.316;-1.050;2023-09-07T08:24:08;9.25;;;4.25;;
18568;SDS011;14780;48.316;-1.050;2023-09-07T08:26:53;11.15;;;4.57;;
18568;SDS011;14780;48.316;-1.050;2023-09-07T08:29:39;9.73;;;4.45;;
18568;SDS011;14780;48.316;-1.050;2023-09-07T08:32:24;9.85;;;4.22;;
18568;SDS011;14780;48.316;-1.050;2023-09-07T08:35:10;9.20;;;4.03;;
18568;SDS011;14780;48.316;-1.050;2023-09-07T08:37:58;6.70;;;3.87;;
18568;SDS011;14780;48.316;-1.050;2023-09-07T08:40:44;8.52;;;4.00;;
18568;SDS011;14780;48.316;-1.050;2023-09-07T08:43:29;7.93;;;3.80;;
18568;SDS011;14780;48.316;-1.050;2023-09-07T08:46:17;9.70;;;4.15;;
18568;SDS011;14780;48.316;-1.050;2023-09-07T08:49:06;10.40;;;4.20;;
18568;SDS011;14780;48.316;-1.050;2023-09-07T08:51:52;9.57;;;4.32;;
18568;SDS011;14780;48.316;-1.050;2023-09-07T08:54:42;7.38;;;4.03;;
18568;SDS011;14780;48.316;-1.050;2023-09-07T08:57:29;8.02;;;4.28;;
18568;SDS011;14780;48.316;-1.050;2023-09-07T09:00:15;7.30;;;3.97;;
18568;SDS011;14780;48.316;-1.050;2023-09-07T09:03:00;10.77;;;4.78;;
18568;SDS011;14780;48.316;-1.050;2023-09-07T09:05:47;8.77;;;3.97;;
18568;SDS011;14780;48.316;-1.050;2023-09-07T09:08:42;11.35;;;4.20;;
18568;SDS011;14780;48.316;-1.050;2023-09-07T09:11:32;7.57;;;3.83;;
18568;SDS011;14780;48.316;-1.050;2023-09-07T09:14:18;7.18;;;4.00;;
18568;SDS011;14780;48.316;-1.050;2023-09-07T09:17:03;7.88;;;3.88;;
18568;SDS011;14780;48.316;-1.050;2023-09-07T09:19:48;7.53;;;4.07;;
18568;SDS011;14780;48.316;-1.050;2023-09-07T09:22:32;7.22;;;3.95;;
18568;SDS011;14780;48.316;-1.050;2023-09-07T09:25:17;9.68;;;4.28;;
18568;SDS011;14780;48.316;-1.050;2023-09-07T09:28:02;8.73;;;4.30;;
18568;SDS011;14780;48.316;-1.050;2023-09-07T09:30:48;6.30;;;3.85;;
18568;SDS011;14780;48.316;-1.050;2023-09-07T09:33:33;7.78;;;4.45;;
18568;SDS011;14780;48.316;-1.050;2023-09-07T09:36:18;8.20;;;4.57;;
18568;SDS011;14780;48.316;-1.050;2023-09-07T09:39:04;12.25;;;4.75;;
18568;SDS011;14780;48.316;-1.050;2023-09-07T09:41:49;92.53;;;15.50;;
18568;SDS011;14780;48.316;-1.050;2023-09-07T09:44:34;70.47;;;14.25;;
18568;SDS011;14780;48.316;-1.050;2023-09-07T09:47:21;39.70;;;8.68;;
18568;SDS011;14780;48.316;-1.050;2023-09-07T09:50:06;28.97;;;7.70;;
18568;SDS011;14780;48.316;-1.050;2023-09-07T09:52:53;15.90;;;5.83;;
18568;SDS011;14780;48.316;-1.050;2023-09-07T09:55:38;12.93;;;5.00;;
18568;SDS011;14780;48.316;-1.050;2023-09-07T09:58:22;14.43;;;5.15;;
18568;SDS011;14780;48.316;-1.050;2023-09-07T10:01:07;12.55;;;4.70;;
18568;SDS011;14780;48.316;-1.050;2023-09-07T10:03:54;14.57;;;5.00;;
18568;SDS011;14780;48.316;-1.050;2023-09-07T10:06:49;11.73;;;4.90;;
18568;SDS011;14780;48.316;-1.050;2023-09-07T10:09:38;8.20;;;4.40;;
18568;SDS011;14780;48.316;-1.050;2023-09-07T10:12:27;11.20;;;4.30;;
18568;SDS011;14780;48.316;-1.050;2023-09-07T10:15:22;10.60;;;4.13;;
18568;SDS011;14780;48.316;-1.050;2023-09-07T10:20:57;15.98;;;4.88;;
18568;SDS011;14780;48.316;-1.050;2023-09-07T10:23:43;9.82;;;4.57;;
18568;SDS011;14780;48.316;-1.050;2023-09-07T10:26:29;8.82;;;4.07;;
18568;SDS011;14780;48.316;-1.050;2023-09-07T10:29:13;9.02;;;4.18;;
18568;SDS011;14780;48.316;-1.050;2023-09-07T10:32:04;7.82;;;4.40;;
18568;SDS011;14780;48.316;-1.050;2023-09-07T10:34:50;8.93;;;4.13;;
18568;SDS011;14780;48.316;-1.050;2023-09-07T10:37:34;6.65;;;3.90;;
18568;SDS011;14780;48.316;-1.050;2023-09-07T10:40:20;7.88;;;4.35;;
18568;SDS011;14780;48.316;-1.050;2023-09-07T10:43:05;9.75;;;4.30;;
18568;SDS011;14780;48.316;-1.050;2023-09-07T10:45:52;10.25;;;4.40;;
18568;SDS011;14780;48.316;-1.050;2023-09-07T10:48:39;8.40;;;4.00;;
18568;SDS011;14780;48.316;-1.050;2023-09-07T10:51:25;7.30;;;4.13;;
18568;SDS011;14780;48.316;-1.050;2023-09-07T10:54:16;8.68;;;4.30;;
18568;SDS011;14780;48.316;-1.050;2023-09-07T10:57:09;7.13;;;4.20;;
18568;SDS011;14780;48.316;-1.050;2023-09-07T10:59:57;7.07;;;3.63;;
18568;SDS011;14780;48.316;-1.050;2023-09-07T11:02:42;5.75;;;3.70;;
18568;SDS011;14780;48.316;-1.050;2023-09-07T11:05:27;8.65;;;4.10;;
18568;SDS011;14780;48.316;-1.050;2023-09-07T11:08:11;6.95;;;3.80;;
18568;SDS011;14780;48.316;-1.050;2023-09-07T11:10:57;7.55;;;3.88;;
18568;SDS011;14780;48.316;-1.050;2023-09-07T11:13:41;9.15;;;4.03;;
18568;SDS011;14780;48.316;-1.050;2023-09-07T11:16:28;8.18;;;4.13;;
18568;SDS011;14780;48.316;-1.050;2023-09-07T11:19:13;7.85;;;3.60;;
18568;SDS011;14780;48.316;-1.050;2023-09-07T11:21:59;8.70;;;4.30;;
18568;SDS011;14780;48.316;-1.050;2023-09-07T11:24:44;11.52;;;4.57;;
18568;SDS011;14780;48.316;-1.050;2023-09-07T11:27:30;6.93;;;4.20;;
18568;SDS011;14780;48.316;-1.050;2023-09-07T11:30:17;6.78;;;4.00;;
18568;SDS011;14780;48.316;-1.050;2023-09-07T11:33:06;6.37;;;3.80;;
18568;SDS011;14780;48.316;-1.050;2023-09-07T11:35:51;8.98;;;4.25;;
18568;SDS011;14780;48.316;-1.050;2023-09-07T11:38:42;6.70;;;4.00;;
18568;SDS011;14780;48.316;-1.050;2023-09-07T11:41:28;5.50;;;3.70;;
18568;SDS011;14780;48.316;-1.050;2023-09-07T11:44:13;7.97;;;4.40;;
18568;SDS011;14780;48.316;-1.050;2023-09-07T11:46:57;8.20;;;4.40;;
18568;SDS011;14780;48.316;-1.050;2023-09-07T11:49:42;6.50;;;4.20;;
18568;SDS011;14780;48.316;-1.050;2023-09-07T11:52:27;8.95;;;3.90;;
18568;SDS011;14780;48.316;-1.050;2023-09-07T11:55:13;11.43;;;4.18;;
18568;SDS011;14780;48.316;-1.050;2023-09-07T11:57:58;8.13;;;4.15;;
18568;SDS011;14780;48.316;-1.050;2023-09-07T12:00:47;8.15;;;4.15;;
18568;SDS011;14780;48.316;-1.050;2023-09-07T12:03:33;365.42;;;336.02;;
18568;SDS011;14780;48.316;-1.050;2023-09-07T12:06:18;643.97;;;589.53;;
18568;SDS011;14780;48.316;-1.050;2023-09-07T12:09:03;558.38;;;511.40;;
18568;SDS011;14780;48.316;-1.050;2023-09-07T12:11:55;302.43;;;278.63;;
18568;SDS011;14780;48.316;-1.050;2023-09-07T12:14:40;292.75;;;269.15;;
18568;SDS011;14780;48.316;-1.050;2023-09-07T12:17:25;339.50;;;312.93;;
18568;SDS011;14780;48.316;-1.050;2023-09-07T12:20:09;164.60;;;150.60;;
18568;SDS011;14780;48.316;-1.050;2023-09-07T12:22:56;162.13;;;148.83;;
18568;SDS011;14780;48.316;-1.050;2023-09-07T12:25:41;165.23;;;151.63;;
18568;SDS011;14780;48.316;-1.050;2023-09-07T12:28:25;107.43;;;98.32;;
18568;SDS011;14780;48.316;-1.050;2023-09-07T12:31:10;148.13;;;136.00;;
18568;SDS011;14780;48.316;-1.050;2023-09-07T12:33:55;94.30;;;85.90;;
18568;SDS011;14780;48.316;-1.050;2023-09-07T12:36:40;83.63;;;75.80;;
18568;SDS011;14780;48.316;-1.050;2023-09-07T12:39:25;92.00;;;83.37;;
18568;SDS011;14780;48.316;-1.050;2023-09-07T12:42:10;80.97;;;73.65;;
18568;SDS011;14780;48.316;-1.050;2023-09-07T12:44:55;54.33;;;48.80;;
18568;SDS011;14780;48.316;-1.050;2023-09-07T12:47:39;55.22;;;49.42;;
18568;SDS011;14780;48.316;-1.050;2023-09-07T12:50:24;55.67;;;50.42;;
18568;SDS011;14780;48.316;-1.050;2023-09-07T12:53:09;41.22;;;37.03;;
18568;SDS011;14780;48.316;-1.050;2023-09-07T12:55:54;42.10;;;38.08;;
18568;SDS011;14780;48.316;-1.050;2023-09-07T12:58:38;33.83;;;30.52;;
18568;SDS011;14780;48.316;-1.050;2023-09-07T13:01:23;29.48;;;24.58;;
18568;SDS011;14780;48.316;-1.050;2023-09-07T13:04:07;24.67;;;21.33;;
18568;SDS011;14780;48.316;-1.050;2023-09-07T13:06:52;24.13;;;21.08;;
18568;SDS011;14780;48.316;-1.050;2023-09-07T13:09:36;23.83;;;16.02;;
18568;SDS011;14780;48.316;-1.050;2023-09-07T13:12:21;17.50;;;12.52;;
18568;SDS011;14780;48.316;-1.050;2023-09-07T13:15:06;20.63;;;11.15;;
18568;SDS011;14780;48.316;-1.050;2023-09-07T13:17:52;17.90;;;9.23;;
18568;SDS011;14780;48.316;-1.050;2023-09-07T13:20:36;16.42;;;7.82;;
18568;SDS011;14780;48.316;-1.050;2023-09-07T13:23:21;13.70;;;8.00;;
18568;SDS011;14780;48.316;-1.050;2023-09-07T13:26:06;15.70;;;9.13;;
18568;SDS011;14780;48.316;-1.050;2023-09-07T13:28:51;14.95;;;7.95;;
18568;SDS011;14780;48.316;-1.050;2023-09-07T13:31:36;15.60;;;7.22;;
18568;SDS011;14780;48.316;-1.050;2023-09-07T13:34:21;13.57;;;5.97;;
18568;SDS011;14780;48.316;-1.050;2023-09-07T13:37:06;14.02;;;6.65;;
18568;SDS011;14780;48.316;-1.050;2023-09-07T13:39:50;11.55;;;6.05;;
18568;SDS011;14780;48.316;-1.050;2023-09-07T13:42:35;12.48;;;5.72;;
18568;SDS011;14780;48.316;-1.050;2023-09-07T13:45:22;14.03;;;6.50;;
18568;SDS011;14780;48.316;-1.050;2023-09-07T13:48:07;14.75;;;6.70;;
18568;SDS011;14780;48.316;-1.050;2023-09-07T13:50:52;16.73;;;6.20;;
18568;SDS011;14780;48.316;-1.050;2023-09-07T13:53:36;17.37;;;5.53;;
18568;SDS011;14780;48.316;-1.050;2023-09-07T13:56:21;15.68;;;6.07;;
18568;SDS011;14780;48.316;-1.050;2023-09-07T13:59:06;11.20;;;5.65;;
18568;SDS011;14780;48.316;-1.050;2023-09-07T14:01:51;11.90;;;5.57;;
18568;SDS011;14780;48.316;-1.050;2023-09-07T14:04:35;14.23;;;5.55;;
18568;SDS011;14780;48.316;-1.050;2023-09-07T14:07:20;11.30;;;5.70;;
18568;SDS011;14780;48.316;-1.050;2023-09-07T14:10:05;15.95;;;5.68;;
18568;SDS011;14780;48.316;-1.050;2023-09-07T14:12:50;18.92;;;6.32;;
18568;SDS011;14780;48.316;-1.050;2023-09-07T14:15:34;15.57;;;5.75;;
18568;SDS011;14780;48.316;-1.050;2023-09-07T14:18:19;13.55;;;5.93;;
18568;SDS011;14780;48.316;-1.050;2023-09-07T14:21:03;12.07;;;5.50;;
18568;SDS011;14780;48.316;-1.050;2023-09-07T14:23:48;17.08;;;5.57;;
18568;SDS011;14780;48.316;-1.050;2023-09-07T14:26:33;18.73;;;6.22;;
18568;SDS011;14780;48.316;-1.050;2023-09-07T14:29:17;15.77;;;6.20;;
18568;SDS011;14780;48.316;-1.050;2023-09-07T14:32:02;12.90;;;5.35;;
18568;SDS011;14780;48.316;-1.050;2023-09-07T14:34:47;14.00;;;5.68;;
18568;SDS011;14780;48.316;-1.050;2023-09-07T14:37:32;13.40;;;5.50;;
18568;SDS011;14780;48.316;-1.050;2023-09-07T14:40:16;12.20;;;5.17;;
18568;SDS011;14780;48.316;-1.050;2023-09-07T14:43:04;12.88;;;5.35;;
18568;SDS011;14780;48.316;-1.050;2023-09-07T14:45:49;19.98;;;5.60;;
18568;SDS011;14780;48.316;-1.050;2023-09-07T14:48:34;11.90;;;5.50;;
18568;SDS011;14780;48.316;-1.050;2023-09-07T14:51:19;12.80;;;5.35;;
18568;SDS011;14780;48.316;-1.050;2023-09-07T14:54:03;15.13;;;5.40;;
18568;SDS011;14780;48.316;-1.050;2023-09-07T14:56:48;12.55;;;5.57;;
18568;SDS011;14780;48.316;-1.050;2023-09-07T14:59:32;13.88;;;5.63;;
18568;SDS011;14780;48.316;-1.050;2023-09-07T15:02:17;13.80;;;5.55;;
18568;SDS011;14780;48.316;-1.050;2023-09-07T15:05:01;15.57;;;5.93;;
18568;SDS011;14780;48.316;-1.050;2023-09-07T15:07:47;16.98;;;6.03;;
18568;SDS011;14780;48.316;-1.050;2023-09-07T15:10:31;14.68;;;5.95;;
18568;SDS011;14780;48.316;-1.050;2023-09-07T15:13:17;15.02;;;5.43;;
18568;SDS011;14780;48.316;-1.050;2023-09-07T15:16:04;12.20;;;5.63;;
18568;SDS011;14780;48.316;-1.050;2023-09-07T15:18:49;14.93;;;5.73;;
18568;SDS011;14780;48.316;-1.050;2023-09-07T15:21:34;11.50;;;5.22;;
18568;SDS011;14780;48.316;-1.050;2023-09-07T15:24:19;12.60;;;5.70;;
18568;SDS011;14780;48.316;-1.050;2023-09-07T15:27:10;10.63;;;5.55;;
18568;SDS011;14780;48.316;-1.050;2023-09-07T15:29:55;11.97;;;5.23;;
18568;SDS011;14780;48.316;-1.050;2023-09-07T15:32:40;16.52;;;5.45;;
18568;SDS011;14780;48.316;-1.050;2023-09-07T15:35:25;11.40;;;5.43;;
18568;SDS011;14780;48.316;-1.050;2023-09-07T15:38:09;11.60;;;5.50;;
18568;SDS011;14780;48.316;-1.050;2023-09-07T15:40:54;14.23;;;5.57;;
18568;SDS011;14780;48.316;-1.050;2023-09-07T15:43:39;13.45;;;6.03;;
18568;SDS011;14780;48.316;-1.050;2023-09-07T15:46:23;11.55;;;5.72;;
18568;SDS011;14780;48.316;-1.050;2023-09-07T15:49:08;12.13;;;5.30;;
18568;SDS011;14780;48.316;-1.050;2023-09-07T15:51:53;15.15;;;5.82;;
18568;SDS011;14780;48.316;-1.050;2023-09-07T15:54:38;17.15;;;5.55;;
18568;SDS011;14780;48.316;-1.050;2023-09-07T15:57:22;20.02;;;5.90;;
18568;SDS011;14780;48.316;-1.050;2023-09-07T16:00:08;12.25;;;5.72;;
18568;SDS011;14780;48.316;-1.050;2023-09-07T16:02:53;13.02;;;5.38;;
18568;SDS011;14780;48.316;-1.050;2023-09-07T16:05:38;12.68;;;5.88;;
18568;SDS011;14780;48.316;-1.050;2023-09-07T16:08:23;11.87;;;5.67;;
18568;SDS011;14780;48.316;-1.050;2023-09-07T16:11:10;21.85;;;6.43;;